<?xml version="1.0" encoding="UTF-8" standalone="no" ?>
<gpx xmlns="http://www.topografix.com/GPX/1/1" xmlns:xsi="http://www.w3.org/2001/XMLSchema-instance" xsi:schemaLocation="http://www.topografix.com/GPX/1/1 http://www.topografix.com/GPX/1/1/gpx.xsd" version="1.1" creator="VisuGPX - https://www.visugpx.com">
  <metadata>
    <name>STE GEMME</name>
  </metadata>
  <trk>
    <name><![CDATA[STE GEMME]]></name>
    <extensions>
      <line xmlns="http://www.topografix.com/GPX/gpx_style/0/2">
        <color>0000FF</color>
        <width>4</width>
      </line>
    </extensions>
    <trkseg>
      <trkpt lat="44.08961" lon="2.20058">
        <ele>366.4</ele>
        <time>2026-02-01T07:32:02Z</time>
      </trkpt>
      <trkpt lat="44.08957" lon="2.20042">
        <ele>372.17</ele>
        <time>2026-02-01T07:40:37Z</time>
      </trkpt>
      <trkpt lat="44.08952" lon="2.20029">
        <ele>370.73</ele>
        <time>2026-02-01T07:40:50Z</time>
      </trkpt>
      <trkpt lat="44.08947" lon="2.20016">
        <ele>361.11</ele>
        <time>2026-02-01T07:41:30Z</time>
      </trkpt>
      <trkpt lat="44.08952" lon="2.20004">
        <ele>361.11</ele>
        <time>2026-02-01T07:41:40Z</time>
      </trkpt>
      <trkpt lat="44.08953" lon="2.1999">
        <ele>361.11</ele>
        <time>2026-02-01T07:41:48Z</time>
      </trkpt>
      <trkpt lat="44.08956" lon="2.19975">
        <ele>360.63</ele>
        <time>2026-02-01T07:41:56Z</time>
      </trkpt>
      <trkpt lat="44.08961" lon="2.19961">
        <ele>361.59</ele>
        <time>2026-02-01T07:42:04Z</time>
      </trkpt>
      <trkpt lat="44.08961" lon="2.19946">
        <ele>360.63</ele>
        <time>2026-02-01T07:42:12Z</time>
      </trkpt>
      <trkpt lat="44.08959" lon="2.1993">
        <ele>357.75</ele>
        <time>2026-02-01T07:42:23Z</time>
      </trkpt>
      <trkpt lat="44.08954" lon="2.19914">
        <ele>356.31</ele>
        <time>2026-02-01T07:42:32Z</time>
      </trkpt>
      <trkpt lat="44.08949" lon="2.199">
        <ele>355.34</ele>
        <time>2026-02-01T07:42:40Z</time>
      </trkpt>
      <trkpt lat="44.08945" lon="2.19885">
        <ele>357.27</ele>
        <time>2026-02-01T07:42:48Z</time>
      </trkpt>
      <trkpt lat="44.08941" lon="2.1987">
        <ele>359.19</ele>
        <time>2026-02-01T07:42:56Z</time>
      </trkpt>
      <trkpt lat="44.08938" lon="2.19855">
        <ele>360.15</ele>
        <time>2026-02-01T07:43:06Z</time>
      </trkpt>
      <trkpt lat="44.08934" lon="2.19841">
        <ele>360.15</ele>
        <time>2026-02-01T07:43:14Z</time>
      </trkpt>
      <trkpt lat="44.08931" lon="2.19827">
        <ele>359.67</ele>
        <time>2026-02-01T07:43:21Z</time>
      </trkpt>
      <trkpt lat="44.08927" lon="2.19812">
        <ele>359.67</ele>
        <time>2026-02-01T07:43:30Z</time>
      </trkpt>
      <trkpt lat="44.08923" lon="2.19796">
        <ele>358.71</ele>
        <time>2026-02-01T07:43:40Z</time>
      </trkpt>
      <trkpt lat="44.08922" lon="2.19779">
        <ele>358.23</ele>
        <time>2026-02-01T07:43:48Z</time>
      </trkpt>
      <trkpt lat="44.0892" lon="2.19764">
        <ele>357.75</ele>
        <time>2026-02-01T07:43:56Z</time>
      </trkpt>
      <trkpt lat="44.08918" lon="2.1975">
        <ele>356.31</ele>
        <time>2026-02-01T07:44:04Z</time>
      </trkpt>
      <trkpt lat="44.08917" lon="2.19735">
        <ele>356.31</ele>
        <time>2026-02-01T07:44:13Z</time>
      </trkpt>
      <trkpt lat="44.08915" lon="2.19721">
        <ele>355.83</ele>
        <time>2026-02-01T07:44:21Z</time>
      </trkpt>
      <trkpt lat="44.08913" lon="2.19707">
        <ele>355.83</ele>
        <time>2026-02-01T07:44:29Z</time>
      </trkpt>
      <trkpt lat="44.08911" lon="2.19692">
        <ele>355.34</ele>
        <time>2026-02-01T07:44:38Z</time>
      </trkpt>
      <trkpt lat="44.08908" lon="2.19676">
        <ele>356.31</ele>
        <time>2026-02-01T07:45:23Z</time>
      </trkpt>
      <trkpt lat="44.08906" lon="2.19661">
        <ele>354.38</ele>
        <time>2026-02-01T07:45:32Z</time>
      </trkpt>
      <trkpt lat="44.08903" lon="2.19646">
        <ele>353.9</ele>
        <time>2026-02-01T07:45:42Z</time>
      </trkpt>
      <trkpt lat="44.08902" lon="2.19632">
        <ele>352.94</ele>
        <time>2026-02-01T07:45:51Z</time>
      </trkpt>
      <trkpt lat="44.08901" lon="2.19617">
        <ele>352.94</ele>
        <time>2026-02-01T07:46:00Z</time>
      </trkpt>
      <trkpt lat="44.08898" lon="2.19604">
        <ele>351.98</ele>
        <time>2026-02-01T07:46:08Z</time>
      </trkpt>
      <trkpt lat="44.08895" lon="2.1959">
        <ele>351.5</ele>
        <time>2026-02-01T07:46:16Z</time>
      </trkpt>
      <trkpt lat="44.08889" lon="2.19577">
        <ele>351.98</ele>
        <time>2026-02-01T07:46:24Z</time>
      </trkpt>
      <trkpt lat="44.08881" lon="2.19567">
        <ele>351.98</ele>
        <time>2026-02-01T07:46:32Z</time>
      </trkpt>
      <trkpt lat="44.08872" lon="2.19557">
        <ele>351.5</ele>
        <time>2026-02-01T07:46:40Z</time>
      </trkpt>
      <trkpt lat="44.08864" lon="2.19547">
        <ele>351.5</ele>
        <time>2026-02-01T07:46:47Z</time>
      </trkpt>
      <trkpt lat="44.08855" lon="2.19539">
        <ele>351.02</ele>
        <time>2026-02-01T07:46:55Z</time>
      </trkpt>
      <trkpt lat="44.08847" lon="2.1953">
        <ele>350.06</ele>
        <time>2026-02-01T07:47:03Z</time>
      </trkpt>
      <trkpt lat="44.08839" lon="2.19522">
        <ele>350.06</ele>
        <time>2026-02-01T07:47:10Z</time>
      </trkpt>
      <trkpt lat="44.08832" lon="2.19513">
        <ele>350.06</ele>
        <time>2026-02-01T07:47:17Z</time>
      </trkpt>
      <trkpt lat="44.08823" lon="2.19504">
        <ele>351.02</ele>
        <time>2026-02-01T07:47:25Z</time>
      </trkpt>
      <trkpt lat="44.08816" lon="2.19496">
        <ele>350.06</ele>
        <time>2026-02-01T07:47:32Z</time>
      </trkpt>
      <trkpt lat="44.08807" lon="2.1949">
        <ele>348.13</ele>
        <time>2026-02-01T07:47:40Z</time>
      </trkpt>
      <trkpt lat="44.08799" lon="2.19481">
        <ele>347.65</ele>
        <time>2026-02-01T07:47:47Z</time>
      </trkpt>
      <trkpt lat="44.08791" lon="2.19472">
        <ele>347.17</ele>
        <time>2026-02-01T07:47:53Z</time>
      </trkpt>
      <trkpt lat="44.08783" lon="2.19461">
        <ele>348.13</ele>
        <time>2026-02-01T07:48:01Z</time>
      </trkpt>
      <trkpt lat="44.08775" lon="2.19454">
        <ele>346.21</ele>
        <time>2026-02-01T07:48:08Z</time>
      </trkpt>
      <trkpt lat="44.08766" lon="2.19446">
        <ele>345.25</ele>
        <time>2026-02-01T07:48:15Z</time>
      </trkpt>
      <trkpt lat="44.08758" lon="2.19434">
        <ele>345.25</ele>
        <time>2026-02-01T07:48:23Z</time>
      </trkpt>
      <trkpt lat="44.0875" lon="2.19427">
        <ele>344.77</ele>
        <time>2026-02-01T07:48:30Z</time>
      </trkpt>
      <trkpt lat="44.08742" lon="2.19419">
        <ele>343.81</ele>
        <time>2026-02-01T07:48:37Z</time>
      </trkpt>
      <trkpt lat="44.08734" lon="2.19411">
        <ele>343.33</ele>
        <time>2026-02-01T07:48:44Z</time>
      </trkpt>
      <trkpt lat="44.08725" lon="2.194">
        <ele>343.81</ele>
        <time>2026-02-01T07:48:52Z</time>
      </trkpt>
      <trkpt lat="44.08716" lon="2.19388">
        <ele>344.29</ele>
        <time>2026-02-01T07:49:00Z</time>
      </trkpt>
      <trkpt lat="44.08708" lon="2.19379">
        <ele>344.77</ele>
        <time>2026-02-01T07:49:07Z</time>
      </trkpt>
      <trkpt lat="44.087" lon="2.19369">
        <ele>344.29</ele>
        <time>2026-02-01T07:49:16Z</time>
      </trkpt>
      <trkpt lat="44.08691" lon="2.19359">
        <ele>343.81</ele>
        <time>2026-02-01T07:49:24Z</time>
      </trkpt>
      <trkpt lat="44.08682" lon="2.19351">
        <ele>343.33</ele>
        <time>2026-02-01T07:49:33Z</time>
      </trkpt>
      <trkpt lat="44.08673" lon="2.19342">
        <ele>343.33</ele>
        <time>2026-02-01T07:49:41Z</time>
      </trkpt>
      <trkpt lat="44.08665" lon="2.19332">
        <ele>343.81</ele>
        <time>2026-02-01T07:49:49Z</time>
      </trkpt>
      <trkpt lat="44.08655" lon="2.19323">
        <ele>343.81</ele>
        <time>2026-02-01T07:49:58Z</time>
      </trkpt>
      <trkpt lat="44.08645" lon="2.19315">
        <ele>343.33</ele>
        <time>2026-02-01T07:50:08Z</time>
      </trkpt>
      <trkpt lat="44.08638" lon="2.19306">
        <ele>344.29</ele>
        <time>2026-02-01T07:50:16Z</time>
      </trkpt>
      <trkpt lat="44.0863" lon="2.19297">
        <ele>344.77</ele>
        <time>2026-02-01T07:50:25Z</time>
      </trkpt>
      <trkpt lat="44.08625" lon="2.19286">
        <ele>345.25</ele>
        <time>2026-02-01T07:50:33Z</time>
      </trkpt>
      <trkpt lat="44.08622" lon="2.19274">
        <ele>345.25</ele>
        <time>2026-02-01T07:50:41Z</time>
      </trkpt>
      <trkpt lat="44.08621" lon="2.19259">
        <ele>345.73</ele>
        <time>2026-02-01T07:50:49Z</time>
      </trkpt>
      <trkpt lat="44.08619" lon="2.19246">
        <ele>346.21</ele>
        <time>2026-02-01T07:50:57Z</time>
      </trkpt>
      <trkpt lat="44.08617" lon="2.19234">
        <ele>344.77</ele>
        <time>2026-02-01T07:51:05Z</time>
      </trkpt>
      <trkpt lat="44.08613" lon="2.1922">
        <ele>344.29</ele>
        <time>2026-02-01T07:51:13Z</time>
      </trkpt>
      <trkpt lat="44.08607" lon="2.19208">
        <ele>343.81</ele>
        <time>2026-02-01T07:51:22Z</time>
      </trkpt>
      <trkpt lat="44.08598" lon="2.19199">
        <ele>343.81</ele>
        <time>2026-02-01T07:51:31Z</time>
      </trkpt>
      <trkpt lat="44.08589" lon="2.19192">
        <ele>342.85</ele>
        <time>2026-02-01T07:51:40Z</time>
      </trkpt>
      <trkpt lat="44.08579" lon="2.19193">
        <ele>339.96</ele>
        <time>2026-02-01T07:51:49Z</time>
      </trkpt>
      <trkpt lat="44.08568" lon="2.19199">
        <ele>339.96</ele>
        <time>2026-02-01T07:51:58Z</time>
      </trkpt>
      <trkpt lat="44.08559" lon="2.19205">
        <ele>341.41</ele>
        <time>2026-02-01T07:52:06Z</time>
      </trkpt>
      <trkpt lat="44.08549" lon="2.19209">
        <ele>342.85</ele>
        <time>2026-02-01T07:52:15Z</time>
      </trkpt>
      <trkpt lat="44.08539" lon="2.19213">
        <ele>344.29</ele>
        <time>2026-02-01T07:52:25Z</time>
      </trkpt>
      <trkpt lat="44.0853" lon="2.19214">
        <ele>344.29</ele>
        <time>2026-02-01T07:52:42Z</time>
      </trkpt>
      <trkpt lat="44.0852" lon="2.1921">
        <ele>342.85</ele>
        <time>2026-02-01T07:52:49Z</time>
      </trkpt>
      <trkpt lat="44.0851" lon="2.19204">
        <ele>341.41</ele>
        <time>2026-02-01T07:52:57Z</time>
      </trkpt>
      <trkpt lat="44.085" lon="2.19198">
        <ele>339.96</ele>
        <time>2026-02-01T07:53:06Z</time>
      </trkpt>
      <trkpt lat="44.08488" lon="2.19192">
        <ele>336.12</ele>
        <time>2026-02-01T07:53:16Z</time>
      </trkpt>
      <trkpt lat="44.08477" lon="2.19186">
        <ele>334.2</ele>
        <time>2026-02-01T07:53:24Z</time>
      </trkpt>
      <trkpt lat="44.08465" lon="2.19178">
        <ele>333.23</ele>
        <time>2026-02-01T07:53:33Z</time>
      </trkpt>
      <trkpt lat="44.08454" lon="2.1917">
        <ele>331.79</ele>
        <time>2026-02-01T07:53:42Z</time>
      </trkpt>
      <trkpt lat="44.08447" lon="2.19158">
        <ele>330.35</ele>
        <time>2026-02-01T07:53:51Z</time>
      </trkpt>
      <trkpt lat="44.0844" lon="2.19147">
        <ele>330.83</ele>
        <time>2026-02-01T07:53:59Z</time>
      </trkpt>
      <trkpt lat="44.08433" lon="2.19133">
        <ele>331.79</ele>
        <time>2026-02-01T07:54:08Z</time>
      </trkpt>
      <trkpt lat="44.08427" lon="2.19122">
        <ele>333.23</ele>
        <time>2026-02-01T07:54:17Z</time>
      </trkpt>
      <trkpt lat="44.08419" lon="2.19111">
        <ele>334.2</ele>
        <time>2026-02-01T07:54:28Z</time>
      </trkpt>
      <trkpt lat="44.0841" lon="2.191">
        <ele>333.71</ele>
        <time>2026-02-01T07:54:39Z</time>
      </trkpt>
      <trkpt lat="44.08402" lon="2.19089">
        <ele>333.23</ele>
        <time>2026-02-01T07:54:50Z</time>
      </trkpt>
      <trkpt lat="44.08393" lon="2.1908">
        <ele>332.75</ele>
        <time>2026-02-01T07:55:00Z</time>
      </trkpt>
      <trkpt lat="44.08385" lon="2.19071">
        <ele>331.31</ele>
        <time>2026-02-01T07:55:12Z</time>
      </trkpt>
      <trkpt lat="44.08376" lon="2.19062">
        <ele>331.31</ele>
        <time>2026-02-01T07:55:23Z</time>
      </trkpt>
      <trkpt lat="44.08369" lon="2.19051">
        <ele>330.83</ele>
        <time>2026-02-01T07:55:36Z</time>
      </trkpt>
      <trkpt lat="44.0836" lon="2.19043">
        <ele>329.87</ele>
        <time>2026-02-01T07:55:48Z</time>
      </trkpt>
      <trkpt lat="44.08353" lon="2.19032">
        <ele>328.91</ele>
        <time>2026-02-01T07:56:02Z</time>
      </trkpt>
      <trkpt lat="44.08332" lon="2.19011">
        <ele>323.14</ele>
        <time>2026-02-01T07:57:15Z</time>
      </trkpt>
      <trkpt lat="44.08312" lon="2.19058">
        <ele>316.41</ele>
        <time>2026-02-01T07:57:59Z</time>
      </trkpt>
      <trkpt lat="44.08292" lon="2.19101">
        <ele>310.16</ele>
        <time>2026-02-01T07:58:41Z</time>
      </trkpt>
      <trkpt lat="44.08263" lon="2.19138">
        <ele>302.95</ele>
        <time>2026-02-01T07:59:22Z</time>
      </trkpt>
      <trkpt lat="44.08252" lon="2.19162">
        <ele>301.03</ele>
        <time>2026-02-01T07:59:45Z</time>
      </trkpt>
      <trkpt lat="44.08243" lon="2.19186">
        <ele>299.11</ele>
        <time>2026-02-01T08:00:03Z</time>
      </trkpt>
      <trkpt lat="44.08207" lon="2.19218">
        <ele>290.94</ele>
        <time>2026-02-01T08:01:54Z</time>
      </trkpt>
      <trkpt lat="44.08203" lon="2.19239">
        <ele>289.01</ele>
        <time>2026-02-01T08:02:06Z</time>
      </trkpt>
      <trkpt lat="44.08199" lon="2.19253">
        <ele>287.57</ele>
        <time>2026-02-01T08:02:16Z</time>
      </trkpt>
      <trkpt lat="44.08195" lon="2.19268">
        <ele>287.57</ele>
        <time>2026-02-01T08:02:27Z</time>
      </trkpt>
      <trkpt lat="44.08289" lon="2.19369">
        <ele>295.26</ele>
        <time>2026-02-01T08:04:40Z</time>
      </trkpt>
      <trkpt lat="44.08299" lon="2.19412">
        <ele>301.03</ele>
        <time>2026-02-01T08:05:39Z</time>
      </trkpt>
      <trkpt lat="44.08288" lon="2.19398">
        <ele>305.84</ele>
        <time>2026-02-01T08:05:52Z</time>
      </trkpt>
      <trkpt lat="44.08278" lon="2.19389">
        <ele>307.76</ele>
        <time>2026-02-01T08:06:04Z</time>
      </trkpt>
      <trkpt lat="44.08246" lon="2.19379">
        <ele>312.57</ele>
        <time>2026-02-01T08:06:34Z</time>
      </trkpt>
      <trkpt lat="44.08232" lon="2.19378">
        <ele>313.53</ele>
        <time>2026-02-01T08:06:47Z</time>
      </trkpt>
      <trkpt lat="44.08211" lon="2.1938">
        <ele>314.97</ele>
        <time>2026-02-01T08:07:09Z</time>
      </trkpt>
      <trkpt lat="44.08189" lon="2.19387">
        <ele>316.89</ele>
        <time>2026-02-01T08:07:34Z</time>
      </trkpt>
      <trkpt lat="44.08193" lon="2.19401">
        <ele>318.81</ele>
        <time>2026-02-01T08:07:47Z</time>
      </trkpt>
      <trkpt lat="44.08208" lon="2.19416">
        <ele>321.7</ele>
        <time>2026-02-01T08:08:06Z</time>
      </trkpt>
      <trkpt lat="44.08207" lon="2.1943">
        <ele>322.18</ele>
        <time>2026-02-01T08:08:22Z</time>
      </trkpt>
      <trkpt lat="44.08197" lon="2.19439">
        <ele>324.58</ele>
        <time>2026-02-01T08:08:35Z</time>
      </trkpt>
      <trkpt lat="44.08186" lon="2.19448">
        <ele>325.54</ele>
        <time>2026-02-01T08:08:48Z</time>
      </trkpt>
      <trkpt lat="44.08176" lon="2.19455">
        <ele>326.99</ele>
        <time>2026-02-01T08:09:01Z</time>
      </trkpt>
      <trkpt lat="44.08162" lon="2.19468">
        <ele>328.91</ele>
        <time>2026-02-01T08:09:18Z</time>
      </trkpt>
      <trkpt lat="44.08151" lon="2.19478">
        <ele>332.27</ele>
        <time>2026-02-01T08:09:33Z</time>
      </trkpt>
      <trkpt lat="44.08142" lon="2.19489">
        <ele>332.75</ele>
        <time>2026-02-01T08:09:45Z</time>
      </trkpt>
      <trkpt lat="44.08131" lon="2.19498">
        <ele>334.68</ele>
        <time>2026-02-01T08:09:58Z</time>
      </trkpt>
      <trkpt lat="44.08122" lon="2.19513">
        <ele>334.2</ele>
        <time>2026-02-01T08:10:16Z</time>
      </trkpt>
      <trkpt lat="44.08118" lon="2.1953">
        <ele>333.71</ele>
        <time>2026-02-01T08:10:27Z</time>
      </trkpt>
      <trkpt lat="44.08101" lon="2.19541">
        <ele>337.56</ele>
        <time>2026-02-01T08:11:55Z</time>
      </trkpt>
      <trkpt lat="44.08089" lon="2.19539">
        <ele>336.6</ele>
        <time>2026-02-01T08:12:05Z</time>
      </trkpt>
      <trkpt lat="44.08071" lon="2.19534">
        <ele>341.41</ele>
        <time>2026-02-01T08:13:39Z</time>
      </trkpt>
      <trkpt lat="44.08053" lon="2.19539">
        <ele>347.65</ele>
        <time>2026-02-01T08:14:40Z</time>
      </trkpt>
      <trkpt lat="44.08043" lon="2.19541">
        <ele>343.33</ele>
        <time>2026-02-01T08:14:51Z</time>
      </trkpt>
      <trkpt lat="44.08033" lon="2.19549">
        <ele>340.92</ele>
        <time>2026-02-01T08:15:02Z</time>
      </trkpt>
      <trkpt lat="44.08024" lon="2.19556">
        <ele>339.96</ele>
        <time>2026-02-01T08:15:13Z</time>
      </trkpt>
      <trkpt lat="44.08013" lon="2.19564">
        <ele>340.44</ele>
        <time>2026-02-01T08:15:24Z</time>
      </trkpt>
      <trkpt lat="44.08004" lon="2.19571">
        <ele>341.41</ele>
        <time>2026-02-01T08:15:33Z</time>
      </trkpt>
      <trkpt lat="44.07997" lon="2.1958">
        <ele>341.89</ele>
        <time>2026-02-01T08:15:42Z</time>
      </trkpt>
      <trkpt lat="44.07988" lon="2.19593">
        <ele>343.33</ele>
        <time>2026-02-01T08:16:44Z</time>
      </trkpt>
      <trkpt lat="44.07979" lon="2.196">
        <ele>344.29</ele>
        <time>2026-02-01T08:16:56Z</time>
      </trkpt>
      <trkpt lat="44.07972" lon="2.19608">
        <ele>344.29</ele>
        <time>2026-02-01T08:17:15Z</time>
      </trkpt>
      <trkpt lat="44.07964" lon="2.19599">
        <ele>342.37</ele>
        <time>2026-02-01T08:17:27Z</time>
      </trkpt>
      <trkpt lat="44.07957" lon="2.19588">
        <ele>342.85</ele>
        <time>2026-02-01T08:17:37Z</time>
      </trkpt>
      <trkpt lat="44.07949" lon="2.19579">
        <ele>341.89</ele>
        <time>2026-02-01T08:17:47Z</time>
      </trkpt>
      <trkpt lat="44.07941" lon="2.1957">
        <ele>340.44</ele>
        <time>2026-02-01T08:17:57Z</time>
      </trkpt>
      <trkpt lat="44.07933" lon="2.19562">
        <ele>340.44</ele>
        <time>2026-02-01T08:18:05Z</time>
      </trkpt>
      <trkpt lat="44.07925" lon="2.19554">
        <ele>339</ele>
        <time>2026-02-01T08:18:13Z</time>
      </trkpt>
      <trkpt lat="44.07917" lon="2.19546">
        <ele>339</ele>
        <time>2026-02-01T08:18:21Z</time>
      </trkpt>
      <trkpt lat="44.07909" lon="2.19539">
        <ele>338.52</ele>
        <time>2026-02-01T08:18:29Z</time>
      </trkpt>
      <trkpt lat="44.079" lon="2.19531">
        <ele>337.56</ele>
        <time>2026-02-01T08:18:37Z</time>
      </trkpt>
      <trkpt lat="44.07891" lon="2.19525">
        <ele>336.12</ele>
        <time>2026-02-01T08:18:45Z</time>
      </trkpt>
      <trkpt lat="44.07882" lon="2.19519">
        <ele>335.64</ele>
        <time>2026-02-01T08:18:53Z</time>
      </trkpt>
      <trkpt lat="44.07873" lon="2.19513">
        <ele>334.2</ele>
        <time>2026-02-01T08:19:01Z</time>
      </trkpt>
      <trkpt lat="44.07864" lon="2.19507">
        <ele>333.71</ele>
        <time>2026-02-01T08:19:09Z</time>
      </trkpt>
      <trkpt lat="44.07854" lon="2.195">
        <ele>332.75</ele>
        <time>2026-02-01T08:19:18Z</time>
      </trkpt>
      <trkpt lat="44.07846" lon="2.19493">
        <ele>332.75</ele>
        <time>2026-02-01T08:19:26Z</time>
      </trkpt>
      <trkpt lat="44.07837" lon="2.19487">
        <ele>332.75</ele>
        <time>2026-02-01T08:19:34Z</time>
      </trkpt>
      <trkpt lat="44.07828" lon="2.19479">
        <ele>332.27</ele>
        <time>2026-02-01T08:19:43Z</time>
      </trkpt>
      <trkpt lat="44.07818" lon="2.19469">
        <ele>331.79</ele>
        <time>2026-02-01T08:19:53Z</time>
      </trkpt>
      <trkpt lat="44.07809" lon="2.19459">
        <ele>331.31</ele>
        <time>2026-02-01T08:20:02Z</time>
      </trkpt>
      <trkpt lat="44.07801" lon="2.19449">
        <ele>330.83</ele>
        <time>2026-02-01T08:20:10Z</time>
      </trkpt>
      <trkpt lat="44.07793" lon="2.19441">
        <ele>332.27</ele>
        <time>2026-02-01T08:20:18Z</time>
      </trkpt>
      <trkpt lat="44.07785" lon="2.19432">
        <ele>332.75</ele>
        <time>2026-02-01T08:20:27Z</time>
      </trkpt>
      <trkpt lat="44.07775" lon="2.19423">
        <ele>332.27</ele>
        <time>2026-02-01T08:20:37Z</time>
      </trkpt>
      <trkpt lat="44.07766" lon="2.19414">
        <ele>333.23</ele>
        <time>2026-02-01T08:20:46Z</time>
      </trkpt>
      <trkpt lat="44.07758" lon="2.19405">
        <ele>334.68</ele>
        <time>2026-02-01T08:20:55Z</time>
      </trkpt>
      <trkpt lat="44.0775" lon="2.19397">
        <ele>335.64</ele>
        <time>2026-02-01T08:21:04Z</time>
      </trkpt>
      <trkpt lat="44.07741" lon="2.1939">
        <ele>335.64</ele>
        <time>2026-02-01T08:21:12Z</time>
      </trkpt>
      <trkpt lat="44.0773" lon="2.19381">
        <ele>337.56</ele>
        <time>2026-02-01T08:21:29Z</time>
      </trkpt>
      <trkpt lat="44.0772" lon="2.19374">
        <ele>337.08</ele>
        <time>2026-02-01T08:21:39Z</time>
      </trkpt>
      <trkpt lat="44.07709" lon="2.19366">
        <ele>338.04</ele>
        <time>2026-02-01T08:21:50Z</time>
      </trkpt>
      <trkpt lat="44.07696" lon="2.19357">
        <ele>339</ele>
        <time>2026-02-01T08:22:40Z</time>
      </trkpt>
      <trkpt lat="44.07692" lon="2.19345">
        <ele>339</ele>
        <time>2026-02-01T08:22:49Z</time>
      </trkpt>
      <trkpt lat="44.07685" lon="2.19335">
        <ele>338.52</ele>
        <time>2026-02-01T08:23:00Z</time>
      </trkpt>
      <trkpt lat="44.07674" lon="2.19333">
        <ele>339</ele>
        <time>2026-02-01T08:23:10Z</time>
      </trkpt>
      <trkpt lat="44.07663" lon="2.19331">
        <ele>338.52</ele>
        <time>2026-02-01T08:23:20Z</time>
      </trkpt>
      <trkpt lat="44.07651" lon="2.19327">
        <ele>339</ele>
        <time>2026-02-01T08:23:30Z</time>
      </trkpt>
      <trkpt lat="44.0764" lon="2.19325">
        <ele>339</ele>
        <time>2026-02-01T08:23:39Z</time>
      </trkpt>
      <trkpt lat="44.07629" lon="2.19323">
        <ele>338.04</ele>
        <time>2026-02-01T08:23:49Z</time>
      </trkpt>
      <trkpt lat="44.07618" lon="2.19319">
        <ele>338.52</ele>
        <time>2026-02-01T08:23:58Z</time>
      </trkpt>
      <trkpt lat="44.07607" lon="2.19315">
        <ele>338.04</ele>
        <time>2026-02-01T08:24:07Z</time>
      </trkpt>
      <trkpt lat="44.07596" lon="2.1931">
        <ele>338.04</ele>
        <time>2026-02-01T08:24:17Z</time>
      </trkpt>
      <trkpt lat="44.07585" lon="2.19305">
        <ele>338.04</ele>
        <time>2026-02-01T08:24:26Z</time>
      </trkpt>
      <trkpt lat="44.07575" lon="2.193">
        <ele>338.52</ele>
        <time>2026-02-01T08:24:35Z</time>
      </trkpt>
      <trkpt lat="44.07564" lon="2.19296">
        <ele>338.04</ele>
        <time>2026-02-01T08:24:44Z</time>
      </trkpt>
      <trkpt lat="44.07554" lon="2.19292">
        <ele>337.56</ele>
        <time>2026-02-01T08:24:53Z</time>
      </trkpt>
      <trkpt lat="44.07544" lon="2.19286">
        <ele>337.56</ele>
        <time>2026-02-01T08:25:02Z</time>
      </trkpt>
      <trkpt lat="44.07536" lon="2.1928">
        <ele>338.52</ele>
        <time>2026-02-01T08:25:10Z</time>
      </trkpt>
      <trkpt lat="44.07525" lon="2.19274">
        <ele>338.52</ele>
        <time>2026-02-01T08:25:19Z</time>
      </trkpt>
      <trkpt lat="44.07515" lon="2.1927">
        <ele>338.52</ele>
        <time>2026-02-01T08:25:28Z</time>
      </trkpt>
      <trkpt lat="44.07505" lon="2.19265">
        <ele>337.56</ele>
        <time>2026-02-01T08:25:37Z</time>
      </trkpt>
      <trkpt lat="44.07494" lon="2.19259">
        <ele>337.56</ele>
        <time>2026-02-01T08:25:47Z</time>
      </trkpt>
      <trkpt lat="44.07484" lon="2.19255">
        <ele>337.08</ele>
        <time>2026-02-01T08:25:56Z</time>
      </trkpt>
      <trkpt lat="44.07472" lon="2.19252">
        <ele>335.64</ele>
        <time>2026-02-01T08:26:06Z</time>
      </trkpt>
      <trkpt lat="44.07461" lon="2.19249">
        <ele>335.64</ele>
        <time>2026-02-01T08:26:15Z</time>
      </trkpt>
      <trkpt lat="44.07452" lon="2.19245">
        <ele>335.64</ele>
        <time>2026-02-01T08:26:24Z</time>
      </trkpt>
      <trkpt lat="44.07442" lon="2.19244">
        <ele>335.64</ele>
        <time>2026-02-01T08:26:32Z</time>
      </trkpt>
      <trkpt lat="44.07428" lon="2.19244">
        <ele>335.64</ele>
        <time>2026-02-01T08:27:22Z</time>
      </trkpt>
      <trkpt lat="44.07417" lon="2.19244">
        <ele>334.2</ele>
        <time>2026-02-01T08:27:31Z</time>
      </trkpt>
      <trkpt lat="44.07406" lon="2.19243">
        <ele>333.23</ele>
        <time>2026-02-01T08:27:40Z</time>
      </trkpt>
      <trkpt lat="44.07396" lon="2.19244">
        <ele>332.75</ele>
        <time>2026-02-01T08:27:48Z</time>
      </trkpt>
      <trkpt lat="44.07387" lon="2.19244">
        <ele>333.23</ele>
        <time>2026-02-01T08:27:56Z</time>
      </trkpt>
      <trkpt lat="44.07376" lon="2.19244">
        <ele>333.71</ele>
        <time>2026-02-01T08:28:05Z</time>
      </trkpt>
      <trkpt lat="44.07366" lon="2.19244">
        <ele>334.2</ele>
        <time>2026-02-01T08:28:13Z</time>
      </trkpt>
      <trkpt lat="44.07355" lon="2.19243">
        <ele>333.23</ele>
        <time>2026-02-01T08:28:21Z</time>
      </trkpt>
      <trkpt lat="44.07345" lon="2.19242">
        <ele>333.23</ele>
        <time>2026-02-01T08:28:29Z</time>
      </trkpt>
      <trkpt lat="44.07334" lon="2.19241">
        <ele>333.71</ele>
        <time>2026-02-01T08:28:37Z</time>
      </trkpt>
      <trkpt lat="44.07324" lon="2.1924">
        <ele>332.27</ele>
        <time>2026-02-01T08:28:45Z</time>
      </trkpt>
      <trkpt lat="44.07315" lon="2.19239">
        <ele>331.79</ele>
        <time>2026-02-01T08:28:53Z</time>
      </trkpt>
      <trkpt lat="44.07305" lon="2.19239">
        <ele>331.79</ele>
        <time>2026-02-01T08:29:02Z</time>
      </trkpt>
      <trkpt lat="44.07295" lon="2.19238">
        <ele>331.79</ele>
        <time>2026-02-01T08:29:10Z</time>
      </trkpt>
      <trkpt lat="44.07284" lon="2.19237">
        <ele>330.83</ele>
        <time>2026-02-01T08:29:18Z</time>
      </trkpt>
      <trkpt lat="44.07273" lon="2.19237">
        <ele>330.83</ele>
        <time>2026-02-01T08:29:27Z</time>
      </trkpt>
      <trkpt lat="44.07262" lon="2.19241">
        <ele>329.39</ele>
        <time>2026-02-01T08:29:37Z</time>
      </trkpt>
      <trkpt lat="44.0725" lon="2.19244">
        <ele>329.87</ele>
        <time>2026-02-01T08:29:47Z</time>
      </trkpt>
      <trkpt lat="44.07239" lon="2.19249">
        <ele>329.39</ele>
        <time>2026-02-01T08:29:58Z</time>
      </trkpt>
      <trkpt lat="44.07228" lon="2.19255">
        <ele>329.39</ele>
        <time>2026-02-01T08:30:08Z</time>
      </trkpt>
      <trkpt lat="44.07218" lon="2.19259">
        <ele>328.91</ele>
        <time>2026-02-01T08:30:17Z</time>
      </trkpt>
      <trkpt lat="44.07209" lon="2.19263">
        <ele>328.91</ele>
        <time>2026-02-01T08:30:26Z</time>
      </trkpt>
      <trkpt lat="44.072" lon="2.19267">
        <ele>327.95</ele>
        <time>2026-02-01T08:30:35Z</time>
      </trkpt>
      <trkpt lat="44.0719" lon="2.19269">
        <ele>326.5</ele>
        <time>2026-02-01T08:30:45Z</time>
      </trkpt>
      <trkpt lat="44.07181" lon="2.19273">
        <ele>326.5</ele>
        <time>2026-02-01T08:30:54Z</time>
      </trkpt>
      <trkpt lat="44.07171" lon="2.19275">
        <ele>325.06</ele>
        <time>2026-02-01T08:31:04Z</time>
      </trkpt>
      <trkpt lat="44.07161" lon="2.19278">
        <ele>324.1</ele>
        <time>2026-02-01T08:31:14Z</time>
      </trkpt>
      <trkpt lat="44.07149" lon="2.19281">
        <ele>322.66</ele>
        <time>2026-02-01T08:31:24Z</time>
      </trkpt>
      <trkpt lat="44.07136" lon="2.19284">
        <ele>320.26</ele>
        <time>2026-02-01T08:31:36Z</time>
      </trkpt>
      <trkpt lat="44.07124" lon="2.19288">
        <ele>319.3</ele>
        <time>2026-02-01T08:31:48Z</time>
      </trkpt>
      <trkpt lat="44.07112" lon="2.19293">
        <ele>317.85</ele>
        <time>2026-02-01T08:31:59Z</time>
      </trkpt>
      <trkpt lat="44.07101" lon="2.19295">
        <ele>317.37</ele>
        <time>2026-02-01T08:32:10Z</time>
      </trkpt>
      <trkpt lat="44.07089" lon="2.19295">
        <ele>316.41</ele>
        <time>2026-02-01T08:32:21Z</time>
      </trkpt>
      <trkpt lat="44.07079" lon="2.19292">
        <ele>314.01</ele>
        <time>2026-02-01T08:32:32Z</time>
      </trkpt>
      <trkpt lat="44.07068" lon="2.19288">
        <ele>312.57</ele>
        <time>2026-02-01T08:32:43Z</time>
      </trkpt>
      <trkpt lat="44.07057" lon="2.19284">
        <ele>312.09</ele>
        <time>2026-02-01T08:32:54Z</time>
      </trkpt>
      <trkpt lat="44.07047" lon="2.1928">
        <ele>312.09</ele>
        <time>2026-02-01T08:33:05Z</time>
      </trkpt>
      <trkpt lat="44.07034" lon="2.19276">
        <ele>310.16</ele>
        <time>2026-02-01T08:33:18Z</time>
      </trkpt>
      <trkpt lat="44.07021" lon="2.19271">
        <ele>308.72</ele>
        <time>2026-02-01T08:33:31Z</time>
      </trkpt>
      <trkpt lat="44.07009" lon="2.19266">
        <ele>307.28</ele>
        <time>2026-02-01T08:33:42Z</time>
      </trkpt>
      <trkpt lat="44.06997" lon="2.19256">
        <ele>304.39</ele>
        <time>2026-02-01T08:33:55Z</time>
      </trkpt>
      <trkpt lat="44.06987" lon="2.19251">
        <ele>301.51</ele>
        <time>2026-02-01T08:34:06Z</time>
      </trkpt>
      <trkpt lat="44.06968" lon="2.19242">
        <ele>296.7</ele>
        <time>2026-02-01T08:34:25Z</time>
      </trkpt>
      <trkpt lat="44.06936" lon="2.19231">
        <ele>293.34</ele>
        <time>2026-02-01T08:34:54Z</time>
      </trkpt>
      <trkpt lat="44.06914" lon="2.19216">
        <ele>289.49</ele>
        <time>2026-02-01T08:35:19Z</time>
      </trkpt>
      <trkpt lat="44.06908" lon="2.19202">
        <ele>289.97</ele>
        <time>2026-02-01T08:35:30Z</time>
      </trkpt>
      <trkpt lat="44.06878" lon="2.19145">
        <ele>277</ele>
        <time>2026-02-01T08:36:18Z</time>
      </trkpt>
      <trkpt lat="44.06865" lon="2.19126">
        <ele>270.27</ele>
        <time>2026-02-01T08:36:39Z</time>
      </trkpt>
      <trkpt lat="44.06794" lon="2.19122">
        <ele>276.04</ele>
        <time>2026-02-01T08:40:16Z</time>
      </trkpt>
      <trkpt lat="44.06773" lon="2.1912">
        <ele>274.59</ele>
        <time>2026-02-01T08:41:09Z</time>
      </trkpt>
      <trkpt lat="44.06759" lon="2.19123">
        <ele>273.63</ele>
        <time>2026-02-01T08:41:33Z</time>
      </trkpt>
      <trkpt lat="44.06748" lon="2.19129">
        <ele>271.23</ele>
        <time>2026-02-01T08:41:46Z</time>
      </trkpt>
      <trkpt lat="44.06731" lon="2.19136">
        <ele>269.31</ele>
        <time>2026-02-01T08:42:02Z</time>
      </trkpt>
      <trkpt lat="44.06714" lon="2.19136">
        <ele>272.19</ele>
        <time>2026-02-01T08:42:19Z</time>
      </trkpt>
      <trkpt lat="44.06689" lon="2.19131">
        <ele>275.07</ele>
        <time>2026-02-01T08:42:42Z</time>
      </trkpt>
      <trkpt lat="44.06674" lon="2.19125">
        <ele>278.92</ele>
        <time>2026-02-01T08:42:56Z</time>
      </trkpt>
      <trkpt lat="44.06652" lon="2.19104">
        <ele>287.09</ele>
        <time>2026-02-01T08:43:22Z</time>
      </trkpt>
      <trkpt lat="44.06617" lon="2.1909">
        <ele>293.34</ele>
        <time>2026-02-01T08:44:04Z</time>
      </trkpt>
      <trkpt lat="44.06605" lon="2.19099">
        <ele>294.78</ele>
        <time>2026-02-01T08:44:17Z</time>
      </trkpt>
      <trkpt lat="44.06593" lon="2.19108">
        <ele>296.22</ele>
        <time>2026-02-01T08:44:29Z</time>
      </trkpt>
      <trkpt lat="44.06584" lon="2.19117">
        <ele>298.15</ele>
        <time>2026-02-01T08:44:40Z</time>
      </trkpt>
      <trkpt lat="44.06577" lon="2.19128">
        <ele>299.59</ele>
        <time>2026-02-01T08:44:51Z</time>
      </trkpt>
      <trkpt lat="44.06569" lon="2.19142">
        <ele>301.03</ele>
        <time>2026-02-01T08:45:02Z</time>
      </trkpt>
      <trkpt lat="44.06561" lon="2.19153">
        <ele>302.47</ele>
        <time>2026-02-01T08:45:12Z</time>
      </trkpt>
      <trkpt lat="44.06551" lon="2.19162">
        <ele>304.39</ele>
        <time>2026-02-01T08:45:23Z</time>
      </trkpt>
      <trkpt lat="44.06544" lon="2.19173">
        <ele>305.36</ele>
        <time>2026-02-01T08:45:34Z</time>
      </trkpt>
      <trkpt lat="44.06536" lon="2.19184">
        <ele>306.32</ele>
        <time>2026-02-01T08:45:47Z</time>
      </trkpt>
      <trkpt lat="44.06523" lon="2.19195">
        <ele>305.84</ele>
        <time>2026-02-01T08:46:06Z</time>
      </trkpt>
      <trkpt lat="44.06511" lon="2.19204">
        <ele>304.88</ele>
        <time>2026-02-01T08:46:18Z</time>
      </trkpt>
      <trkpt lat="44.0649" lon="2.19218">
        <ele>306.8</ele>
        <time>2026-02-01T08:46:40Z</time>
      </trkpt>
      <trkpt lat="44.0648" lon="2.1923">
        <ele>304.39</ele>
        <time>2026-02-01T08:46:53Z</time>
      </trkpt>
      <trkpt lat="44.0647" lon="2.1924">
        <ele>302.47</ele>
        <time>2026-02-01T08:47:05Z</time>
      </trkpt>
      <trkpt lat="44.06459" lon="2.19253">
        <ele>299.59</ele>
        <time>2026-02-01T08:47:20Z</time>
      </trkpt>
      <trkpt lat="44.06444" lon="2.19263">
        <ele>298.63</ele>
        <time>2026-02-01T08:47:34Z</time>
      </trkpt>
      <trkpt lat="44.06431" lon="2.19268">
        <ele>299.11</ele>
        <time>2026-02-01T08:47:46Z</time>
      </trkpt>
      <trkpt lat="44.06418" lon="2.19272">
        <ele>301.03</ele>
        <time>2026-02-01T08:47:56Z</time>
      </trkpt>
      <trkpt lat="44.06404" lon="2.19276">
        <ele>305.84</ele>
        <time>2026-02-01T08:48:05Z</time>
      </trkpt>
      <trkpt lat="44.06391" lon="2.19278">
        <ele>308.72</ele>
        <time>2026-02-01T08:48:14Z</time>
      </trkpt>
      <trkpt lat="44.06379" lon="2.1928">
        <ele>309.68</ele>
        <time>2026-02-01T08:48:24Z</time>
      </trkpt>
      <trkpt lat="44.06367" lon="2.19279">
        <ele>310.64</ele>
        <time>2026-02-01T08:48:41Z</time>
      </trkpt>
      <trkpt lat="44.06355" lon="2.1928">
        <ele>309.68</ele>
        <time>2026-02-01T08:48:54Z</time>
      </trkpt>
      <trkpt lat="44.06344" lon="2.19283">
        <ele>309.68</ele>
        <time>2026-02-01T08:49:06Z</time>
      </trkpt>
      <trkpt lat="44.06331" lon="2.19288">
        <ele>310.64</ele>
        <time>2026-02-01T08:49:18Z</time>
      </trkpt>
      <trkpt lat="44.06319" lon="2.19293">
        <ele>310.64</ele>
        <time>2026-02-01T08:49:31Z</time>
      </trkpt>
      <trkpt lat="44.06298" lon="2.193">
        <ele>308.72</ele>
        <time>2026-02-01T08:49:53Z</time>
      </trkpt>
      <trkpt lat="44.06286" lon="2.19305">
        <ele>308.72</ele>
        <time>2026-02-01T08:50:05Z</time>
      </trkpt>
      <trkpt lat="44.06272" lon="2.19309">
        <ele>310.16</ele>
        <time>2026-02-01T08:50:16Z</time>
      </trkpt>
      <trkpt lat="44.06259" lon="2.19314">
        <ele>313.53</ele>
        <time>2026-02-01T08:50:27Z</time>
      </trkpt>
      <trkpt lat="44.06249" lon="2.19318">
        <ele>314.97</ele>
        <time>2026-02-01T08:50:36Z</time>
      </trkpt>
      <trkpt lat="44.06239" lon="2.19323">
        <ele>316.41</ele>
        <time>2026-02-01T08:50:45Z</time>
      </trkpt>
      <trkpt lat="44.06227" lon="2.19326">
        <ele>317.37</ele>
        <time>2026-02-01T08:50:54Z</time>
      </trkpt>
      <trkpt lat="44.06217" lon="2.19327">
        <ele>318.81</ele>
        <time>2026-02-01T08:51:02Z</time>
      </trkpt>
      <trkpt lat="44.06205" lon="2.19329">
        <ele>320.26</ele>
        <time>2026-02-01T08:51:10Z</time>
      </trkpt>
      <trkpt lat="44.06193" lon="2.19332">
        <ele>321.7</ele>
        <time>2026-02-01T08:51:19Z</time>
      </trkpt>
      <trkpt lat="44.06183" lon="2.19332">
        <ele>322.18</ele>
        <time>2026-02-01T08:51:27Z</time>
      </trkpt>
      <trkpt lat="44.06172" lon="2.19334">
        <ele>322.18</ele>
        <time>2026-02-01T08:51:35Z</time>
      </trkpt>
      <trkpt lat="44.06163" lon="2.19335">
        <ele>323.62</ele>
        <time>2026-02-01T08:51:42Z</time>
      </trkpt>
      <trkpt lat="44.06153" lon="2.19341">
        <ele>324.1</ele>
        <time>2026-02-01T08:51:50Z</time>
      </trkpt>
      <trkpt lat="44.06143" lon="2.19346">
        <ele>325.06</ele>
        <time>2026-02-01T08:51:58Z</time>
      </trkpt>
      <trkpt lat="44.06134" lon="2.19351">
        <ele>325.06</ele>
        <time>2026-02-01T08:52:05Z</time>
      </trkpt>
      <trkpt lat="44.06125" lon="2.19358">
        <ele>325.54</ele>
        <time>2026-02-01T08:52:13Z</time>
      </trkpt>
      <trkpt lat="44.06115" lon="2.19365">
        <ele>326.02</ele>
        <time>2026-02-01T08:52:22Z</time>
      </trkpt>
      <trkpt lat="44.06096" lon="2.19377">
        <ele>327.47</ele>
        <time>2026-02-01T08:56:16Z</time>
      </trkpt>
      <trkpt lat="44.06079" lon="2.19391">
        <ele>325.54</ele>
        <time>2026-02-01T08:56:35Z</time>
      </trkpt>
      <trkpt lat="44.06068" lon="2.19401">
        <ele>322.66</ele>
        <time>2026-02-01T08:56:47Z</time>
      </trkpt>
      <trkpt lat="44.0606" lon="2.19413">
        <ele>318.81</ele>
        <time>2026-02-01T08:56:59Z</time>
      </trkpt>
      <trkpt lat="44.06042" lon="2.19431">
        <ele>315.45</ele>
        <time>2026-02-01T08:57:19Z</time>
      </trkpt>
      <trkpt lat="44.06032" lon="2.19442">
        <ele>316.41</ele>
        <time>2026-02-01T08:57:30Z</time>
      </trkpt>
      <trkpt lat="44.06022" lon="2.19453">
        <ele>316.41</ele>
        <time>2026-02-01T08:57:40Z</time>
      </trkpt>
      <trkpt lat="44.0601" lon="2.19465">
        <ele>318.33</ele>
        <time>2026-02-01T08:57:51Z</time>
      </trkpt>
      <trkpt lat="44.06002" lon="2.19475">
        <ele>319.3</ele>
        <time>2026-02-01T08:58:00Z</time>
      </trkpt>
      <trkpt lat="44.05995" lon="2.19484">
        <ele>319.3</ele>
        <time>2026-02-01T08:58:09Z</time>
      </trkpt>
      <trkpt lat="44.05988" lon="2.19495">
        <ele>318.33</ele>
        <time>2026-02-01T08:58:18Z</time>
      </trkpt>
      <trkpt lat="44.05981" lon="2.19506">
        <ele>318.33</ele>
        <time>2026-02-01T08:58:27Z</time>
      </trkpt>
      <trkpt lat="44.05973" lon="2.19518">
        <ele>317.85</ele>
        <time>2026-02-01T08:58:36Z</time>
      </trkpt>
      <trkpt lat="44.05966" lon="2.19528">
        <ele>316.89</ele>
        <time>2026-02-01T08:58:45Z</time>
      </trkpt>
      <trkpt lat="44.05958" lon="2.19538">
        <ele>316.41</ele>
        <time>2026-02-01T08:58:54Z</time>
      </trkpt>
      <trkpt lat="44.0595" lon="2.19549">
        <ele>316.89</ele>
        <time>2026-02-01T08:59:03Z</time>
      </trkpt>
      <trkpt lat="44.05942" lon="2.19562">
        <ele>316.89</ele>
        <time>2026-02-01T08:59:13Z</time>
      </trkpt>
      <trkpt lat="44.05935" lon="2.1958">
        <ele>315.45</ele>
        <time>2026-02-01T08:59:26Z</time>
      </trkpt>
      <trkpt lat="44.05922" lon="2.19599">
        <ele>313.05</ele>
        <time>2026-02-01T08:59:42Z</time>
      </trkpt>
      <trkpt lat="44.0591" lon="2.19613">
        <ele>310.64</ele>
        <time>2026-02-01T08:59:54Z</time>
      </trkpt>
      <trkpt lat="44.05903" lon="2.19623">
        <ele>308.24</ele>
        <time>2026-02-01T09:00:05Z</time>
      </trkpt>
      <trkpt lat="44.05884" lon="2.1964">
        <ele>309.2</ele>
        <time>2026-02-01T09:00:21Z</time>
      </trkpt>
      <trkpt lat="44.05876" lon="2.19649">
        <ele>310.16</ele>
        <time>2026-02-01T09:00:30Z</time>
      </trkpt>
      <trkpt lat="44.05867" lon="2.19658">
        <ele>311.12</ele>
        <time>2026-02-01T09:00:40Z</time>
      </trkpt>
      <trkpt lat="44.05855" lon="2.19665">
        <ele>311.6</ele>
        <time>2026-02-01T09:00:51Z</time>
      </trkpt>
      <trkpt lat="44.05842" lon="2.19674">
        <ele>311.6</ele>
        <time>2026-02-01T09:01:03Z</time>
      </trkpt>
      <trkpt lat="44.05836" lon="2.1969">
        <ele>314.97</ele>
        <time>2026-02-01T09:01:23Z</time>
      </trkpt>
      <trkpt lat="44.05845" lon="2.19697">
        <ele>316.41</ele>
        <time>2026-02-01T09:01:33Z</time>
      </trkpt>
      <trkpt lat="44.05854" lon="2.19702">
        <ele>316.89</ele>
        <time>2026-02-01T09:01:42Z</time>
      </trkpt>
      <trkpt lat="44.05862" lon="2.19708">
        <ele>316.89</ele>
        <time>2026-02-01T09:01:51Z</time>
      </trkpt>
      <trkpt lat="44.05871" lon="2.19713">
        <ele>317.85</ele>
        <time>2026-02-01T09:01:59Z</time>
      </trkpt>
      <trkpt lat="44.0588" lon="2.19718">
        <ele>318.81</ele>
        <time>2026-02-01T09:02:08Z</time>
      </trkpt>
      <trkpt lat="44.05889" lon="2.19724">
        <ele>319.3</ele>
        <time>2026-02-01T09:02:17Z</time>
      </trkpt>
      <trkpt lat="44.05899" lon="2.19729">
        <ele>319.78</ele>
        <time>2026-02-01T09:02:26Z</time>
      </trkpt>
      <trkpt lat="44.05908" lon="2.19735">
        <ele>321.22</ele>
        <time>2026-02-01T09:02:35Z</time>
      </trkpt>
      <trkpt lat="44.05918" lon="2.19742">
        <ele>322.18</ele>
        <time>2026-02-01T09:02:44Z</time>
      </trkpt>
      <trkpt lat="44.05927" lon="2.1975">
        <ele>323.14</ele>
        <time>2026-02-01T09:02:54Z</time>
      </trkpt>
      <trkpt lat="44.05934" lon="2.19761">
        <ele>323.62</ele>
        <time>2026-02-01T09:03:03Z</time>
      </trkpt>
      <trkpt lat="44.05938" lon="2.19774">
        <ele>324.1</ele>
        <time>2026-02-01T09:03:12Z</time>
      </trkpt>
      <trkpt lat="44.05942" lon="2.19788">
        <ele>325.06</ele>
        <time>2026-02-01T09:03:22Z</time>
      </trkpt>
      <trkpt lat="44.05945" lon="2.19801">
        <ele>326.5</ele>
        <time>2026-02-01T09:03:31Z</time>
      </trkpt>
      <trkpt lat="44.05948" lon="2.19815">
        <ele>327.95</ele>
        <time>2026-02-01T09:03:43Z</time>
      </trkpt>
      <trkpt lat="44.05949" lon="2.19827">
        <ele>327.47</ele>
        <time>2026-02-01T09:03:53Z</time>
      </trkpt>
      <trkpt lat="44.05951" lon="2.1984">
        <ele>326.5</ele>
        <time>2026-02-01T09:04:02Z</time>
      </trkpt>
      <trkpt lat="44.05954" lon="2.19855">
        <ele>326.5</ele>
        <time>2026-02-01T09:04:12Z</time>
      </trkpt>
      <trkpt lat="44.05957" lon="2.19871">
        <ele>326.02</ele>
        <time>2026-02-01T09:04:22Z</time>
      </trkpt>
      <trkpt lat="44.05959" lon="2.19884">
        <ele>325.54</ele>
        <time>2026-02-01T09:04:31Z</time>
      </trkpt>
      <trkpt lat="44.05963" lon="2.19898">
        <ele>326.02</ele>
        <time>2026-02-01T09:04:41Z</time>
      </trkpt>
      <trkpt lat="44.05966" lon="2.19915">
        <ele>325.54</ele>
        <time>2026-02-01T09:04:52Z</time>
      </trkpt>
      <trkpt lat="44.0597" lon="2.19933">
        <ele>324.1</ele>
        <time>2026-02-01T09:05:04Z</time>
      </trkpt>
      <trkpt lat="44.05972" lon="2.19948">
        <ele>322.66</ele>
        <time>2026-02-01T09:05:13Z</time>
      </trkpt>
      <trkpt lat="44.05974" lon="2.19963">
        <ele>322.18</ele>
        <time>2026-02-01T09:05:22Z</time>
      </trkpt>
      <trkpt lat="44.05977" lon="2.19979">
        <ele>323.14</ele>
        <time>2026-02-01T09:05:43Z</time>
      </trkpt>
      <trkpt lat="44.05982" lon="2.19992">
        <ele>322.18</ele>
        <time>2026-02-01T09:05:56Z</time>
      </trkpt>
      <trkpt lat="44.05992" lon="2.20004">
        <ele>320.26</ele>
        <time>2026-02-01T09:06:21Z</time>
      </trkpt>
      <trkpt lat="44.05997" lon="2.2002">
        <ele>320.26</ele>
        <time>2026-02-01T09:06:31Z</time>
      </trkpt>
      <trkpt lat="44.06002" lon="2.20033">
        <ele>320.74</ele>
        <time>2026-02-01T09:06:39Z</time>
      </trkpt>
      <trkpt lat="44.0601" lon="2.20047">
        <ele>319.78</ele>
        <time>2026-02-01T09:06:50Z</time>
      </trkpt>
      <trkpt lat="44.06017" lon="2.20061">
        <ele>320.26</ele>
        <time>2026-02-01T09:07:01Z</time>
      </trkpt>
      <trkpt lat="44.06026" lon="2.20076">
        <ele>320.74</ele>
        <time>2026-02-01T09:07:13Z</time>
      </trkpt>
      <trkpt lat="44.06035" lon="2.20087">
        <ele>321.22</ele>
        <time>2026-02-01T09:07:24Z</time>
      </trkpt>
      <trkpt lat="44.06045" lon="2.20086">
        <ele>321.7</ele>
        <time>2026-02-01T09:07:33Z</time>
      </trkpt>
      <trkpt lat="44.06053" lon="2.20075">
        <ele>322.18</ele>
        <time>2026-02-01T09:07:42Z</time>
      </trkpt>
      <trkpt lat="44.0606" lon="2.20064">
        <ele>322.66</ele>
        <time>2026-02-01T09:07:51Z</time>
      </trkpt>
      <trkpt lat="44.06066" lon="2.20055">
        <ele>322.66</ele>
        <time>2026-02-01T09:07:59Z</time>
      </trkpt>
      <trkpt lat="44.06073" lon="2.20044">
        <ele>322.66</ele>
        <time>2026-02-01T09:08:07Z</time>
      </trkpt>
      <trkpt lat="44.0608" lon="2.20035">
        <ele>322.66</ele>
        <time>2026-02-01T09:08:15Z</time>
      </trkpt>
      <trkpt lat="44.06086" lon="2.20024">
        <ele>323.62</ele>
        <time>2026-02-01T09:08:23Z</time>
      </trkpt>
      <trkpt lat="44.06092" lon="2.20014">
        <ele>323.14</ele>
        <time>2026-02-01T09:08:32Z</time>
      </trkpt>
      <trkpt lat="44.06099" lon="2.20004">
        <ele>322.66</ele>
        <time>2026-02-01T09:08:40Z</time>
      </trkpt>
      <trkpt lat="44.06107" lon="2.19997">
        <ele>322.66</ele>
        <time>2026-02-01T09:08:50Z</time>
      </trkpt>
      <trkpt lat="44.06116" lon="2.19989">
        <ele>323.14</ele>
        <time>2026-02-01T09:08:58Z</time>
      </trkpt>
      <trkpt lat="44.06124" lon="2.19985">
        <ele>323.14</ele>
        <time>2026-02-01T09:09:06Z</time>
      </trkpt>
      <trkpt lat="44.06133" lon="2.19979">
        <ele>323.14</ele>
        <time>2026-02-01T09:09:14Z</time>
      </trkpt>
      <trkpt lat="44.06141" lon="2.19972">
        <ele>323.14</ele>
        <time>2026-02-01T09:09:22Z</time>
      </trkpt>
      <trkpt lat="44.0615" lon="2.19965">
        <ele>323.14</ele>
        <time>2026-02-01T09:09:30Z</time>
      </trkpt>
      <trkpt lat="44.06159" lon="2.19959">
        <ele>322.18</ele>
        <time>2026-02-01T09:09:38Z</time>
      </trkpt>
      <trkpt lat="44.06168" lon="2.19955">
        <ele>322.18</ele>
        <time>2026-02-01T09:09:46Z</time>
      </trkpt>
      <trkpt lat="44.06176" lon="2.19954">
        <ele>321.22</ele>
        <time>2026-02-01T09:10:00Z</time>
      </trkpt>
      <trkpt lat="44.06189" lon="2.19952">
        <ele>321.22</ele>
        <time>2026-02-01T09:10:19Z</time>
      </trkpt>
      <trkpt lat="44.06197" lon="2.1995">
        <ele>320.74</ele>
        <time>2026-02-01T09:10:28Z</time>
      </trkpt>
      <trkpt lat="44.06208" lon="2.1995">
        <ele>320.26</ele>
        <time>2026-02-01T09:10:37Z</time>
      </trkpt>
      <trkpt lat="44.06218" lon="2.1995">
        <ele>320.74</ele>
        <time>2026-02-01T09:10:46Z</time>
      </trkpt>
      <trkpt lat="44.06229" lon="2.19949">
        <ele>321.22</ele>
        <time>2026-02-01T09:10:55Z</time>
      </trkpt>
      <trkpt lat="44.06239" lon="2.1995">
        <ele>321.22</ele>
        <time>2026-02-01T09:11:04Z</time>
      </trkpt>
      <trkpt lat="44.06249" lon="2.19949">
        <ele>321.22</ele>
        <time>2026-02-01T09:11:14Z</time>
      </trkpt>
      <trkpt lat="44.06258" lon="2.19949">
        <ele>321.22</ele>
        <time>2026-02-01T09:11:23Z</time>
      </trkpt>
      <trkpt lat="44.06269" lon="2.19947">
        <ele>321.7</ele>
        <time>2026-02-01T09:11:32Z</time>
      </trkpt>
      <trkpt lat="44.06279" lon="2.19948">
        <ele>321.22</ele>
        <time>2026-02-01T09:11:41Z</time>
      </trkpt>
      <trkpt lat="44.06289" lon="2.19949">
        <ele>321.7</ele>
        <time>2026-02-01T09:11:51Z</time>
      </trkpt>
      <trkpt lat="44.06298" lon="2.19948">
        <ele>322.66</ele>
        <time>2026-02-01T09:12:00Z</time>
      </trkpt>
      <trkpt lat="44.06308" lon="2.19946">
        <ele>323.14</ele>
        <time>2026-02-01T09:12:09Z</time>
      </trkpt>
      <trkpt lat="44.0632" lon="2.19943">
        <ele>323.62</ele>
        <time>2026-02-01T09:12:19Z</time>
      </trkpt>
      <trkpt lat="44.06331" lon="2.19937">
        <ele>324.1</ele>
        <time>2026-02-01T09:12:30Z</time>
      </trkpt>
      <trkpt lat="44.06344" lon="2.19932">
        <ele>325.06</ele>
        <time>2026-02-01T09:12:43Z</time>
      </trkpt>
      <trkpt lat="44.06357" lon="2.19927">
        <ele>324.58</ele>
        <time>2026-02-01T09:12:53Z</time>
      </trkpt>
      <trkpt lat="44.06369" lon="2.19921">
        <ele>325.54</ele>
        <time>2026-02-01T09:13:03Z</time>
      </trkpt>
      <trkpt lat="44.06378" lon="2.19914">
        <ele>327.47</ele>
        <time>2026-02-01T09:13:13Z</time>
      </trkpt>
      <trkpt lat="44.0639" lon="2.19919">
        <ele>326.5</ele>
        <time>2026-02-01T09:13:27Z</time>
      </trkpt>
      <trkpt lat="44.06404" lon="2.19928">
        <ele>326.02</ele>
        <time>2026-02-01T09:13:38Z</time>
      </trkpt>
      <trkpt lat="44.06414" lon="2.19936">
        <ele>325.06</ele>
        <time>2026-02-01T09:13:49Z</time>
      </trkpt>
      <trkpt lat="44.06424" lon="2.1996">
        <ele>323.14</ele>
        <time>2026-02-01T09:14:08Z</time>
      </trkpt>
      <trkpt lat="44.0643" lon="2.19985">
        <ele>322.66</ele>
        <time>2026-02-01T09:14:22Z</time>
      </trkpt>
      <trkpt lat="44.06438" lon="2.2">
        <ele>321.7</ele>
        <time>2026-02-01T09:14:33Z</time>
      </trkpt>
      <trkpt lat="44.0645" lon="2.20004">
        <ele>321.7</ele>
        <time>2026-02-01T09:14:43Z</time>
      </trkpt>
      <trkpt lat="44.06462" lon="2.19999">
        <ele>321.22</ele>
        <time>2026-02-01T09:14:52Z</time>
      </trkpt>
      <trkpt lat="44.06472" lon="2.19996">
        <ele>321.22</ele>
        <time>2026-02-01T09:15:00Z</time>
      </trkpt>
      <trkpt lat="44.06483" lon="2.19991">
        <ele>320.74</ele>
        <time>2026-02-01T09:15:09Z</time>
      </trkpt>
      <trkpt lat="44.06493" lon="2.19989">
        <ele>321.22</ele>
        <time>2026-02-01T09:15:17Z</time>
      </trkpt>
      <trkpt lat="44.06504" lon="2.19985">
        <ele>322.18</ele>
        <time>2026-02-01T09:15:26Z</time>
      </trkpt>
      <trkpt lat="44.06514" lon="2.19983">
        <ele>321.7</ele>
        <time>2026-02-01T09:15:35Z</time>
      </trkpt>
      <trkpt lat="44.06526" lon="2.1998">
        <ele>319.78</ele>
        <time>2026-02-01T09:15:44Z</time>
      </trkpt>
      <trkpt lat="44.06539" lon="2.19976">
        <ele>319.3</ele>
        <time>2026-02-01T09:15:54Z</time>
      </trkpt>
      <trkpt lat="44.0655" lon="2.19972">
        <ele>318.81</ele>
        <time>2026-02-01T09:16:04Z</time>
      </trkpt>
      <trkpt lat="44.06561" lon="2.19969">
        <ele>317.85</ele>
        <time>2026-02-01T09:16:12Z</time>
      </trkpt>
      <trkpt lat="44.06572" lon="2.19965">
        <ele>317.37</ele>
        <time>2026-02-01T09:16:20Z</time>
      </trkpt>
      <trkpt lat="44.06583" lon="2.19962">
        <ele>317.37</ele>
        <time>2026-02-01T09:16:28Z</time>
      </trkpt>
      <trkpt lat="44.06593" lon="2.19958">
        <ele>317.37</ele>
        <time>2026-02-01T09:16:37Z</time>
      </trkpt>
      <trkpt lat="44.06604" lon="2.19954">
        <ele>316.89</ele>
        <time>2026-02-01T09:16:46Z</time>
      </trkpt>
      <trkpt lat="44.06614" lon="2.1995">
        <ele>315.93</ele>
        <time>2026-02-01T09:16:55Z</time>
      </trkpt>
      <trkpt lat="44.06624" lon="2.19946">
        <ele>315.45</ele>
        <time>2026-02-01T09:17:04Z</time>
      </trkpt>
      <trkpt lat="44.06634" lon="2.19942">
        <ele>314.49</ele>
        <time>2026-02-01T09:17:13Z</time>
      </trkpt>
      <trkpt lat="44.06645" lon="2.19937">
        <ele>316.41</ele>
        <time>2026-02-01T09:17:36Z</time>
      </trkpt>
      <trkpt lat="44.06655" lon="2.19933">
        <ele>314.97</ele>
        <time>2026-02-01T09:17:49Z</time>
      </trkpt>
      <trkpt lat="44.06664" lon="2.19929">
        <ele>314.01</ele>
        <time>2026-02-01T09:17:57Z</time>
      </trkpt>
      <trkpt lat="44.06674" lon="2.19923">
        <ele>313.05</ele>
        <time>2026-02-01T09:18:06Z</time>
      </trkpt>
      <trkpt lat="44.06683" lon="2.19916">
        <ele>311.6</ele>
        <time>2026-02-01T09:18:15Z</time>
      </trkpt>
      <trkpt lat="44.06692" lon="2.19908">
        <ele>311.12</ele>
        <time>2026-02-01T09:18:23Z</time>
      </trkpt>
      <trkpt lat="44.06701" lon="2.19901">
        <ele>310.64</ele>
        <time>2026-02-01T09:18:31Z</time>
      </trkpt>
      <trkpt lat="44.0671" lon="2.19895">
        <ele>310.16</ele>
        <time>2026-02-01T09:18:39Z</time>
      </trkpt>
      <trkpt lat="44.06719" lon="2.19889">
        <ele>310.16</ele>
        <time>2026-02-01T09:18:47Z</time>
      </trkpt>
      <trkpt lat="44.0673" lon="2.19884">
        <ele>310.16</ele>
        <time>2026-02-01T09:18:57Z</time>
      </trkpt>
      <trkpt lat="44.0674" lon="2.19881">
        <ele>309.68</ele>
        <time>2026-02-01T09:19:06Z</time>
      </trkpt>
      <trkpt lat="44.06751" lon="2.1988">
        <ele>309.2</ele>
        <time>2026-02-01T09:19:17Z</time>
      </trkpt>
      <trkpt lat="44.06762" lon="2.19881">
        <ele>308.24</ele>
        <time>2026-02-01T09:19:26Z</time>
      </trkpt>
      <trkpt lat="44.06775" lon="2.19881">
        <ele>308.72</ele>
        <time>2026-02-01T09:19:35Z</time>
      </trkpt>
      <trkpt lat="44.06788" lon="2.19879">
        <ele>308.72</ele>
        <time>2026-02-01T09:19:44Z</time>
      </trkpt>
      <trkpt lat="44.06798" lon="2.19878">
        <ele>308.24</ele>
        <time>2026-02-01T09:19:53Z</time>
      </trkpt>
      <trkpt lat="44.0681" lon="2.19877">
        <ele>306.8</ele>
        <time>2026-02-01T09:20:02Z</time>
      </trkpt>
      <trkpt lat="44.0682" lon="2.19876">
        <ele>306.8</ele>
        <time>2026-02-01T09:20:11Z</time>
      </trkpt>
      <trkpt lat="44.06834" lon="2.19874">
        <ele>305.36</ele>
        <time>2026-02-01T09:20:22Z</time>
      </trkpt>
      <trkpt lat="44.06847" lon="2.19873">
        <ele>304.39</ele>
        <time>2026-02-01T09:20:32Z</time>
      </trkpt>
      <trkpt lat="44.06908" lon="2.19873">
        <ele>297.67</ele>
        <time>2026-02-01T09:21:22Z</time>
      </trkpt>
      <trkpt lat="44.06927" lon="2.19862">
        <ele>300.07</ele>
        <time>2026-02-01T09:21:38Z</time>
      </trkpt>
      <trkpt lat="44.0694" lon="2.19854">
        <ele>300.07</ele>
        <time>2026-02-01T09:21:47Z</time>
      </trkpt>
      <trkpt lat="44.06952" lon="2.19846">
        <ele>298.63</ele>
        <time>2026-02-01T09:21:59Z</time>
      </trkpt>
      <trkpt lat="44.06968" lon="2.19849">
        <ele>296.22</ele>
        <time>2026-02-01T09:22:14Z</time>
      </trkpt>
      <trkpt lat="44.06945" lon="2.19895">
        <ele>288.53</ele>
        <time>2026-02-01T09:23:20Z</time>
      </trkpt>
      <trkpt lat="44.06935" lon="2.19903">
        <ele>285.65</ele>
        <time>2026-02-01T09:23:27Z</time>
      </trkpt>
      <trkpt lat="44.069" lon="2.19947">
        <ele>277.96</ele>
        <time>2026-02-01T09:24:04Z</time>
      </trkpt>
      <trkpt lat="44.06915" lon="2.20013">
        <ele>282.77</ele>
        <time>2026-02-01T09:26:53Z</time>
      </trkpt>
      <trkpt lat="44.06944" lon="2.20031">
        <ele>289.97</ele>
        <time>2026-02-01T09:33:31Z</time>
      </trkpt>
      <trkpt lat="44.07022" lon="2.20143">
        <ele>297.67</ele>
        <time>2026-02-01T09:35:23Z</time>
      </trkpt>
      <trkpt lat="44.07122" lon="2.20276">
        <ele>314.49</ele>
        <time>2026-02-01T09:37:43Z</time>
      </trkpt>
      <trkpt lat="44.07129" lon="2.20297">
        <ele>316.41</ele>
        <time>2026-02-01T09:37:59Z</time>
      </trkpt>
      <trkpt lat="44.07136" lon="2.20334">
        <ele>314.97</ele>
        <time>2026-02-01T09:38:28Z</time>
      </trkpt>
      <trkpt lat="44.07133" lon="2.20371">
        <ele>316.89</ele>
        <time>2026-02-01T09:38:54Z</time>
      </trkpt>
      <trkpt lat="44.07133" lon="2.20396">
        <ele>335.16</ele>
        <time>2026-02-01T09:41:23Z</time>
      </trkpt>
      <trkpt lat="44.0713" lon="2.2041">
        <ele>336.12</ele>
        <time>2026-02-01T09:41:33Z</time>
      </trkpt>
      <trkpt lat="44.07126" lon="2.20423">
        <ele>337.56</ele>
        <time>2026-02-01T09:41:43Z</time>
      </trkpt>
      <trkpt lat="44.0712" lon="2.20436">
        <ele>338.04</ele>
        <time>2026-02-01T09:41:54Z</time>
      </trkpt>
      <trkpt lat="44.07117" lon="2.20449">
        <ele>338.52</ele>
        <time>2026-02-01T09:42:04Z</time>
      </trkpt>
      <trkpt lat="44.07112" lon="2.20467">
        <ele>340.44</ele>
        <time>2026-02-01T09:42:27Z</time>
      </trkpt>
      <trkpt lat="44.07108" lon="2.20481">
        <ele>339.96</ele>
        <time>2026-02-01T09:42:37Z</time>
      </trkpt>
      <trkpt lat="44.07104" lon="2.20495">
        <ele>340.44</ele>
        <time>2026-02-01T09:42:47Z</time>
      </trkpt>
      <trkpt lat="44.07099" lon="2.20507">
        <ele>342.37</ele>
        <time>2026-02-01T09:42:56Z</time>
      </trkpt>
      <trkpt lat="44.07094" lon="2.20519">
        <ele>343.33</ele>
        <time>2026-02-01T09:43:05Z</time>
      </trkpt>
      <trkpt lat="44.07089" lon="2.20531">
        <ele>343.81</ele>
        <time>2026-02-01T09:43:14Z</time>
      </trkpt>
      <trkpt lat="44.07086" lon="2.20545">
        <ele>344.77</ele>
        <time>2026-02-01T09:43:23Z</time>
      </trkpt>
      <trkpt lat="44.07084" lon="2.20559">
        <ele>344.29</ele>
        <time>2026-02-01T09:43:33Z</time>
      </trkpt>
      <trkpt lat="44.07081" lon="2.20573">
        <ele>343.81</ele>
        <time>2026-02-01T09:43:43Z</time>
      </trkpt>
      <trkpt lat="44.07084" lon="2.20587">
        <ele>344.29</ele>
        <time>2026-02-01T09:43:53Z</time>
      </trkpt>
      <trkpt lat="44.0709" lon="2.20603">
        <ele>342.85</ele>
        <time>2026-02-01T09:44:04Z</time>
      </trkpt>
      <trkpt lat="44.07099" lon="2.20616">
        <ele>341.89</ele>
        <time>2026-02-01T09:44:15Z</time>
      </trkpt>
      <trkpt lat="44.07108" lon="2.20629">
        <ele>339.96</ele>
        <time>2026-02-01T09:44:37Z</time>
      </trkpt>
      <trkpt lat="44.07117" lon="2.2064">
        <ele>337.56</ele>
        <time>2026-02-01T09:44:49Z</time>
      </trkpt>
      <trkpt lat="44.07125" lon="2.20651">
        <ele>336.6</ele>
        <time>2026-02-01T09:45:00Z</time>
      </trkpt>
      <trkpt lat="44.07133" lon="2.20664">
        <ele>336.12</ele>
        <time>2026-02-01T09:45:11Z</time>
      </trkpt>
      <trkpt lat="44.07144" lon="2.20679">
        <ele>338.52</ele>
        <time>2026-02-01T09:45:27Z</time>
      </trkpt>
      <trkpt lat="44.07154" lon="2.20693">
        <ele>339.48</ele>
        <time>2026-02-01T09:45:37Z</time>
      </trkpt>
      <trkpt lat="44.07162" lon="2.20704">
        <ele>338.52</ele>
        <time>2026-02-01T09:45:47Z</time>
      </trkpt>
      <trkpt lat="44.07174" lon="2.20714">
        <ele>340.44</ele>
        <time>2026-02-01T09:46:01Z</time>
      </trkpt>
      <trkpt lat="44.07187" lon="2.20716">
        <ele>342.85</ele>
        <time>2026-02-01T09:46:12Z</time>
      </trkpt>
      <trkpt lat="44.07199" lon="2.20718">
        <ele>345.25</ele>
        <time>2026-02-01T09:46:30Z</time>
      </trkpt>
      <trkpt lat="44.07211" lon="2.20716">
        <ele>345.25</ele>
        <time>2026-02-01T09:46:49Z</time>
      </trkpt>
      <trkpt lat="44.07224" lon="2.20713">
        <ele>345.73</ele>
        <time>2026-02-01T09:47:00Z</time>
      </trkpt>
      <trkpt lat="44.07248" lon="2.20709">
        <ele>346.69</ele>
        <time>2026-02-01T09:47:25Z</time>
      </trkpt>
      <trkpt lat="44.07267" lon="2.20701">
        <ele>345.25</ele>
        <time>2026-02-01T09:47:47Z</time>
      </trkpt>
      <trkpt lat="44.07286" lon="2.20698">
        <ele>344.29</ele>
        <time>2026-02-01T09:48:02Z</time>
      </trkpt>
      <trkpt lat="44.07301" lon="2.20694">
        <ele>342.37</ele>
        <time>2026-02-01T09:48:14Z</time>
      </trkpt>
      <trkpt lat="44.07311" lon="2.20689">
        <ele>342.85</ele>
        <time>2026-02-01T09:48:25Z</time>
      </trkpt>
      <trkpt lat="44.07322" lon="2.20679">
        <ele>342.85</ele>
        <time>2026-02-01T09:48:36Z</time>
      </trkpt>
      <trkpt lat="44.07333" lon="2.20671">
        <ele>342.85</ele>
        <time>2026-02-01T09:48:46Z</time>
      </trkpt>
      <trkpt lat="44.07346" lon="2.20664">
        <ele>343.33</ele>
        <time>2026-02-01T09:48:57Z</time>
      </trkpt>
      <trkpt lat="44.07357" lon="2.20659">
        <ele>345.73</ele>
        <time>2026-02-01T09:49:07Z</time>
      </trkpt>
      <trkpt lat="44.07367" lon="2.20655">
        <ele>347.17</ele>
        <time>2026-02-01T09:49:16Z</time>
      </trkpt>
      <trkpt lat="44.07383" lon="2.20646">
        <ele>347.65</ele>
        <time>2026-02-01T09:49:37Z</time>
      </trkpt>
      <trkpt lat="44.07401" lon="2.20645">
        <ele>348.13</ele>
        <time>2026-02-01T09:49:51Z</time>
      </trkpt>
      <trkpt lat="44.07412" lon="2.20643">
        <ele>347.65</ele>
        <time>2026-02-01T09:50:01Z</time>
      </trkpt>
      <trkpt lat="44.07425" lon="2.2064">
        <ele>348.62</ele>
        <time>2026-02-01T09:50:15Z</time>
      </trkpt>
      <trkpt lat="44.07436" lon="2.20641">
        <ele>350.06</ele>
        <time>2026-02-01T09:50:24Z</time>
      </trkpt>
      <trkpt lat="44.07448" lon="2.20641">
        <ele>351.02</ele>
        <time>2026-02-01T09:50:33Z</time>
      </trkpt>
      <trkpt lat="44.07458" lon="2.20642">
        <ele>351.5</ele>
        <time>2026-02-01T09:50:42Z</time>
      </trkpt>
      <trkpt lat="44.07469" lon="2.20642">
        <ele>351.02</ele>
        <time>2026-02-01T09:50:51Z</time>
      </trkpt>
      <trkpt lat="44.07479" lon="2.20641">
        <ele>351.98</ele>
        <time>2026-02-01T09:51:01Z</time>
      </trkpt>
      <trkpt lat="44.0749" lon="2.20642">
        <ele>353.9</ele>
        <time>2026-02-01T09:51:10Z</time>
      </trkpt>
      <trkpt lat="44.07501" lon="2.20643">
        <ele>354.86</ele>
        <time>2026-02-01T09:51:19Z</time>
      </trkpt>
      <trkpt lat="44.07511" lon="2.20643">
        <ele>355.83</ele>
        <time>2026-02-01T09:51:28Z</time>
      </trkpt>
      <trkpt lat="44.07521" lon="2.20641">
        <ele>356.31</ele>
        <time>2026-02-01T09:51:37Z</time>
      </trkpt>
      <trkpt lat="44.0753" lon="2.2064">
        <ele>357.75</ele>
        <time>2026-02-01T09:51:45Z</time>
      </trkpt>
      <trkpt lat="44.0754" lon="2.20638">
        <ele>358.71</ele>
        <time>2026-02-01T09:51:54Z</time>
      </trkpt>
      <trkpt lat="44.07553" lon="2.20634">
        <ele>359.19</ele>
        <time>2026-02-01T09:52:04Z</time>
      </trkpt>
      <trkpt lat="44.07562" lon="2.20628">
        <ele>358.71</ele>
        <time>2026-02-01T09:52:13Z</time>
      </trkpt>
      <trkpt lat="44.07571" lon="2.20622">
        <ele>357.75</ele>
        <time>2026-02-01T09:52:22Z</time>
      </trkpt>
      <trkpt lat="44.07583" lon="2.20616">
        <ele>358.71</ele>
        <time>2026-02-01T09:52:31Z</time>
      </trkpt>
      <trkpt lat="44.07593" lon="2.20609">
        <ele>359.67</ele>
        <time>2026-02-01T09:52:40Z</time>
      </trkpt>
      <trkpt lat="44.07602" lon="2.20602">
        <ele>361.11</ele>
        <time>2026-02-01T09:52:49Z</time>
      </trkpt>
      <trkpt lat="44.07611" lon="2.20595">
        <ele>360.15</ele>
        <time>2026-02-01T09:52:58Z</time>
      </trkpt>
      <trkpt lat="44.07622" lon="2.2059">
        <ele>360.15</ele>
        <time>2026-02-01T09:53:08Z</time>
      </trkpt>
      <trkpt lat="44.07634" lon="2.20583">
        <ele>359.67</ele>
        <time>2026-02-01T09:53:18Z</time>
      </trkpt>
      <trkpt lat="44.07643" lon="2.20578">
        <ele>358.23</ele>
        <time>2026-02-01T09:53:27Z</time>
      </trkpt>
      <trkpt lat="44.07654" lon="2.20573">
        <ele>356.79</ele>
        <time>2026-02-01T09:53:36Z</time>
      </trkpt>
      <trkpt lat="44.07663" lon="2.2057">
        <ele>356.79</ele>
        <time>2026-02-01T09:53:44Z</time>
      </trkpt>
      <trkpt lat="44.07674" lon="2.20565">
        <ele>356.79</ele>
        <time>2026-02-01T09:53:53Z</time>
      </trkpt>
      <trkpt lat="44.07684" lon="2.20562">
        <ele>356.79</ele>
        <time>2026-02-01T09:54:02Z</time>
      </trkpt>
      <trkpt lat="44.07695" lon="2.20557">
        <ele>355.34</ele>
        <time>2026-02-01T09:54:11Z</time>
      </trkpt>
      <trkpt lat="44.07706" lon="2.20553">
        <ele>355.83</ele>
        <time>2026-02-01T09:54:20Z</time>
      </trkpt>
      <trkpt lat="44.07716" lon="2.2055">
        <ele>357.27</ele>
        <time>2026-02-01T09:54:29Z</time>
      </trkpt>
      <trkpt lat="44.07724" lon="2.20547">
        <ele>357.75</ele>
        <time>2026-02-01T09:54:38Z</time>
      </trkpt>
      <trkpt lat="44.07735" lon="2.20543">
        <ele>358.71</ele>
        <time>2026-02-01T09:54:48Z</time>
      </trkpt>
      <trkpt lat="44.07744" lon="2.20539">
        <ele>359.67</ele>
        <time>2026-02-01T09:54:58Z</time>
      </trkpt>
      <trkpt lat="44.07754" lon="2.20538">
        <ele>360.15</ele>
        <time>2026-02-01T09:55:09Z</time>
      </trkpt>
      <trkpt lat="44.07765" lon="2.20534">
        <ele>359.67</ele>
        <time>2026-02-01T09:55:21Z</time>
      </trkpt>
      <trkpt lat="44.0778" lon="2.20528">
        <ele>360.15</ele>
        <time>2026-02-01T09:56:00Z</time>
      </trkpt>
      <trkpt lat="44.07789" lon="2.20526">
        <ele>358.23</ele>
        <time>2026-02-01T09:56:08Z</time>
      </trkpt>
      <trkpt lat="44.07798" lon="2.20523">
        <ele>358.23</ele>
        <time>2026-02-01T09:56:17Z</time>
      </trkpt>
      <trkpt lat="44.07807" lon="2.20519">
        <ele>359.19</ele>
        <time>2026-02-01T09:56:27Z</time>
      </trkpt>
      <trkpt lat="44.07816" lon="2.20514">
        <ele>358.23</ele>
        <time>2026-02-01T09:56:36Z</time>
      </trkpt>
      <trkpt lat="44.07826" lon="2.20511">
        <ele>358.71</ele>
        <time>2026-02-01T09:56:45Z</time>
      </trkpt>
      <trkpt lat="44.07837" lon="2.20507">
        <ele>359.19</ele>
        <time>2026-02-01T09:56:54Z</time>
      </trkpt>
      <trkpt lat="44.07847" lon="2.20504">
        <ele>359.67</ele>
        <time>2026-02-01T09:57:03Z</time>
      </trkpt>
      <trkpt lat="44.07856" lon="2.20503">
        <ele>359.67</ele>
        <time>2026-02-01T09:57:11Z</time>
      </trkpt>
      <trkpt lat="44.07866" lon="2.20502">
        <ele>359.67</ele>
        <time>2026-02-01T09:57:20Z</time>
      </trkpt>
      <trkpt lat="44.07876" lon="2.20502">
        <ele>359.67</ele>
        <time>2026-02-01T09:57:28Z</time>
      </trkpt>
      <trkpt lat="44.07885" lon="2.20503">
        <ele>360.15</ele>
        <time>2026-02-01T09:57:37Z</time>
      </trkpt>
      <trkpt lat="44.07895" lon="2.20506">
        <ele>359.67</ele>
        <time>2026-02-01T09:57:45Z</time>
      </trkpt>
      <trkpt lat="44.07905" lon="2.20507">
        <ele>360.15</ele>
        <time>2026-02-01T09:57:54Z</time>
      </trkpt>
      <trkpt lat="44.07915" lon="2.20508">
        <ele>359.19</ele>
        <time>2026-02-01T09:58:02Z</time>
      </trkpt>
      <trkpt lat="44.07925" lon="2.20509">
        <ele>358.71</ele>
        <time>2026-02-01T09:58:11Z</time>
      </trkpt>
      <trkpt lat="44.07936" lon="2.2051">
        <ele>357.75</ele>
        <time>2026-02-01T09:58:22Z</time>
      </trkpt>
      <trkpt lat="44.07947" lon="2.20515">
        <ele>356.31</ele>
        <time>2026-02-01T09:58:40Z</time>
      </trkpt>
      <trkpt lat="44.07958" lon="2.20515">
        <ele>355.34</ele>
        <time>2026-02-01T09:58:58Z</time>
      </trkpt>
      <trkpt lat="44.07968" lon="2.20513">
        <ele>352.94</ele>
        <time>2026-02-01T09:59:09Z</time>
      </trkpt>
      <trkpt lat="44.08028" lon="2.2046">
        <ele>340.44</ele>
        <time>2026-02-01T10:00:47Z</time>
      </trkpt>
      <trkpt lat="44.0804" lon="2.20449">
        <ele>338.52</ele>
        <time>2026-02-01T10:01:08Z</time>
      </trkpt>
      <trkpt lat="44.08086" lon="2.20414">
        <ele>339.96</ele>
        <time>2026-02-01T10:02:07Z</time>
      </trkpt>
      <trkpt lat="44.08142" lon="2.20344">
        <ele>330.35</ele>
        <time>2026-02-01T10:03:18Z</time>
      </trkpt>
      <trkpt lat="44.08403" lon="2.20239">
        <ele>301.51</ele>
        <time>2026-02-01T10:08:35Z</time>
      </trkpt>
      <trkpt lat="44.08483" lon="2.20226">
        <ele>289.49</ele>
        <time>2026-02-01T10:12:21Z</time>
      </trkpt>
      <trkpt lat="44.08505" lon="2.20229">
        <ele>289.97</ele>
        <time>2026-02-01T10:12:46Z</time>
      </trkpt>
      <trkpt lat="44.08532" lon="2.20245">
        <ele>296.7</ele>
        <time>2026-02-01T10:13:21Z</time>
      </trkpt>
      <trkpt lat="44.0858" lon="2.20307">
        <ele>313.05</ele>
        <time>2026-02-01T10:14:55Z</time>
      </trkpt>
      <trkpt lat="44.08577" lon="2.20143">
        <ele>361.59</ele>
        <time>2026-02-01T10:22:27Z</time>
      </trkpt>
      <trkpt lat="44.0859" lon="2.20139">
        <ele>355.83</ele>
        <time>2026-02-01T10:22:37Z</time>
      </trkpt>
      <trkpt lat="44.08619" lon="2.20147">
        <ele>353.9</ele>
        <time>2026-02-01T10:23:18Z</time>
      </trkpt>
      <trkpt lat="44.08712" lon="2.20144">
        <ele>352.94</ele>
        <time>2026-02-01T10:25:04Z</time>
      </trkpt>
      <trkpt lat="44.08729" lon="2.20151">
        <ele>355.83</ele>
        <time>2026-02-01T10:25:35Z</time>
      </trkpt>
      <trkpt lat="44.08738" lon="2.2016">
        <ele>357.75</ele>
        <time>2026-02-01T10:25:45Z</time>
      </trkpt>
      <trkpt lat="44.08746" lon="2.20168">
        <ele>357.27</ele>
        <time>2026-02-01T10:25:54Z</time>
      </trkpt>
      <trkpt lat="44.08755" lon="2.20177">
        <ele>355.83</ele>
        <time>2026-02-01T10:26:04Z</time>
      </trkpt>
      <trkpt lat="44.08764" lon="2.20185">
        <ele>356.31</ele>
        <time>2026-02-01T10:26:13Z</time>
      </trkpt>
      <trkpt lat="44.08773" lon="2.20194">
        <ele>356.31</ele>
        <time>2026-02-01T10:26:22Z</time>
      </trkpt>
      <trkpt lat="44.08781" lon="2.20203">
        <ele>356.79</ele>
        <time>2026-02-01T10:26:31Z</time>
      </trkpt>
      <trkpt lat="44.08791" lon="2.20209">
        <ele>357.75</ele>
        <time>2026-02-01T10:26:40Z</time>
      </trkpt>
      <trkpt lat="44.08801" lon="2.20211">
        <ele>359.19</ele>
        <time>2026-02-01T10:26:48Z</time>
      </trkpt>
      <trkpt lat="44.08809" lon="2.20204">
        <ele>359.19</ele>
        <time>2026-02-01T10:26:56Z</time>
      </trkpt>
      <trkpt lat="44.08817" lon="2.20194">
        <ele>359.19</ele>
        <time>2026-02-01T10:27:04Z</time>
      </trkpt>
      <trkpt lat="44.08825" lon="2.20184">
        <ele>358.71</ele>
        <time>2026-02-01T10:27:14Z</time>
      </trkpt>
      <trkpt lat="44.08831" lon="2.20172">
        <ele>358.71</ele>
        <time>2026-02-01T10:27:22Z</time>
      </trkpt>
      <trkpt lat="44.08838" lon="2.20162">
        <ele>358.71</ele>
        <time>2026-02-01T10:27:31Z</time>
      </trkpt>
      <trkpt lat="44.08846" lon="2.20152">
        <ele>358.71</ele>
        <time>2026-02-01T10:27:40Z</time>
      </trkpt>
      <trkpt lat="44.08853" lon="2.20142">
        <ele>358.71</ele>
        <time>2026-02-01T10:27:52Z</time>
      </trkpt>
      <trkpt lat="44.08861" lon="2.20128">
        <ele>359.67</ele>
        <time>2026-02-01T10:28:05Z</time>
      </trkpt>
      <trkpt lat="44.08875" lon="2.20113">
        <ele>357.75</ele>
        <time>2026-02-01T10:28:17Z</time>
      </trkpt>
      <trkpt lat="44.08885" lon="2.20101">
        <ele>354.86</ele>
        <time>2026-02-01T10:28:29Z</time>
      </trkpt>
      <trkpt lat="44.08894" lon="2.2009">
        <ele>353.9</ele>
        <time>2026-02-01T10:28:39Z</time>
      </trkpt>
      <trkpt lat="44.08904" lon="2.2008">
        <ele>353.42</ele>
        <time>2026-02-01T10:28:48Z</time>
      </trkpt>
      <trkpt lat="44.08917" lon="2.20068">
        <ele>353.9</ele>
        <time>2026-02-01T10:29:00Z</time>
      </trkpt>
      <trkpt lat="44.08928" lon="2.2006">
        <ele>353.42</ele>
        <time>2026-02-01T10:29:10Z</time>
      </trkpt>
      <trkpt lat="44.08938" lon="2.20052">
        <ele>354.38</ele>
        <time>2026-02-01T10:29:21Z</time>
      </trkpt>
      <trkpt lat="44.0895" lon="2.20054">
        <ele>354.86</ele>
        <time>2026-02-01T10:29:32Z</time>
      </trkpt>
    </trkseg>
  </trk>
</gpx>